createdAt,value
2023-04-12T11:32:38.702Z,51.290867
2023-04-12T11:33:38.612Z,51.290649
2023-04-12T11:34:38.619Z,51.290649
2023-04-12T11:35:38.589Z,51.291012
2023-04-12T11:36:38.606Z,51.290730
2023-04-12T11:37:38.574Z,51.290707
2023-04-12T11:38:38.586Z,51.290619
2023-04-12T11:39:38.599Z,51.290520
2023-04-12T11:40:38.522Z,51.290600
2023-04-12T11:41:38.550Z,51.290592
2023-04-12T11:42:38.537Z,51.290642
2023-04-12T11:43:38.705Z,51.290482
2023-04-12T11:44:52.484Z,51.290382
2023-04-12T11:45:39.508Z,51.290531
2023-04-12T11:46:38.477Z,51.290607
2023-04-12T11:47:38.491Z,51.291050
2023-04-12T11:48:38.473Z,51.291122
2023-04-12T11:49:38.498Z,51.291195
2023-04-12T11:50:38.481Z,51.291393
2023-04-12T11:51:38.446Z,51.291363
2023-04-12T11:52:38.394Z,51.290962
2023-04-12T11:53:38.448Z,51.291138
2023-04-12T11:54:38.417Z,51.291199
2023-04-12T11:55:38.336Z,51.291233
2023-04-12T11:56:38.356Z,51.291233
2023-04-12T11:57:38.327Z,51.291004
2023-04-12T11:58:38.409Z,51.291161
2023-04-12T11:59:38.372Z,51.291328
2023-04-12T12:00:38.356Z,51.291351
2023-04-12T12:01:38.274Z,51.291096
2023-04-12T12:02:45.848Z,51.291203
2023-04-12T12:03:40.389Z,51.291416
2023-04-12T12:04:38.466Z,51.291218
2023-04-12T12:05:38.359Z,51.291264
2023-04-12T12:06:38.638Z,51.291290
2023-04-12T12:07:38.221Z,51.291290
2023-04-12T12:08:38.207Z,51.291157
2023-04-12T12:09:38.201Z,51.291382
2023-04-12T12:10:51.950Z,51.291172
2023-04-12T12:11:39.154Z,51.291187
2023-04-12T12:12:38.207Z,51.291279
2023-04-12T12:13:38.123Z,51.291111
2023-04-12T12:14:38.155Z,51.291134
2023-04-12T12:15:38.209Z,51.291180
2023-04-12T12:16:38.135Z,51.291203
2023-04-12T12:17:38.141Z,51.291225
2023-04-12T12:18:38.100Z,51.291149
2023-04-12T12:19:38.106Z,51.291161
2023-04-12T12:20:38.054Z,51.291061
2023-04-12T12:21:38.060Z,51.291302
2023-04-12T12:22:38.043Z,51.291237
2023-04-12T12:23:38.016Z,51.291195
2023-04-12T12:24:41.214Z,51.291298
2023-04-12T12:25:39.001Z,51.291313
2023-04-12T12:26:38.040Z,51.291088
2023-04-12T12:27:38.088Z,51.291218
2023-04-12T12:28:37.997Z,51.291142
2023-04-12T12:29:37.929Z,51.291313
2023-04-12T12:30:37.947Z,51.291172
2023-04-12T12:31:37.928Z,51.291035
2023-04-12T12:32:38.043Z,51.291229
2023-04-12T12:33:46.080Z,51.291260
2023-04-12T12:34:39.887Z,51.291092
2023-04-12T12:35:37.956Z,51.291107
2023-04-12T12:36:37.971Z,51.291286
2023-04-12T12:37:37.895Z,51.291096
2023-04-12T12:38:37.976Z,51.291203
2023-04-12T12:39:37.832Z,51.291088
2023-04-12T12:40:37.835Z,51.291222
2023-04-12T12:41:37.882Z,51.291222
2023-04-12T12:42:37.800Z,51.291256
2023-04-12T12:43:37.792Z,51.291161
2023-04-12T12:44:38.054Z,51.291153
2023-04-12T12:45:38.810Z,51.291130
2023-04-12T12:46:51.934Z,51.291336
2023-04-12T12:47:39.810Z,51.291565
2023-04-12T12:48:37.860Z,51.291199
2023-04-12T12:49:37.741Z,51.291096
2023-04-12T12:50:37.716Z,51.291130
2023-04-12T12:51:37.702Z,51.291142
2023-04-12T12:52:37.690Z,51.291176
2023-04-12T12:53:38.092Z,51.291241
2023-04-12T12:54:41.628Z,51.291214
2023-04-12T12:55:38.911Z,51.291195
2023-04-12T12:56:37.615Z,51.291298
2023-04-12T12:57:37.616Z,51.291195
2023-04-12T12:58:39.656Z,51.291264
2023-04-12T12:59:37.597Z,51.291058
2023-04-12T13:00:37.614Z,51.291149
2023-04-12T13:01:37.626Z,51.291248
2023-04-12T13:02:38.099Z,51.291187
2023-04-12T13:03:37.669Z,51.291214
2023-04-12T13:04:37.817Z,51.291351
2023-04-12T13:05:37.534Z,51.291164
2023-04-12T13:06:37.516Z,51.291172
2023-04-12T13:07:37.514Z,51.291100
2023-04-12T13:08:37.504Z,51.291111
2023-04-12T13:09:37.550Z,51.291439
2023-04-12T13:10:37.482Z,51.291409
2023-04-12T13:11:37.470Z,51.291611
2023-04-12T13:12:37.437Z,51.291489
2023-04-12T13:13:37.434Z,51.291348
2023-04-12T13:14:37.448Z,51.291180
2023-04-12T13:15:37.408Z,51.291290
2023-04-12T13:16:37.450Z,51.291382
2023-04-12T13:17:37.401Z,51.291649
2023-04-12T13:18:37.376Z,51.291756
2023-04-12T13:19:37.370Z,51.291370
2023-04-12T13:20:37.383Z,51.291245
2023-04-12T13:21:37.340Z,51.291199
2023-04-12T13:22:37.318Z,51.291191
2023-04-12T13:23:38.298Z,51.291145
2023-04-12T13:24:37.355Z,51.291172
2023-04-12T13:25:37.432Z,51.291145
2023-04-12T13:26:37.285Z,51.291187
2023-04-12T13:27:37.275Z,51.291203
2023-04-12T13:28:37.270Z,51.291180
2023-04-12T13:29:37.246Z,51.291233
2023-04-12T13:30:37.237Z,51.291092
2023-04-12T13:31:37.280Z,51.291191
2023-04-12T13:32:37.281Z,51.291195
2023-04-12T13:33:37.206Z,51.291283
2023-04-12T13:34:37.200Z,51.291195
2023-04-12T13:35:37.185Z,51.291119
2023-04-12T13:36:37.229Z,51.291012
2023-04-12T13:37:37.150Z,51.291115
2023-04-12T13:38:37.192Z,51.291126
2023-04-12T13:39:37.150Z,51.291256
2023-04-12T13:40:37.125Z,51.291378
2023-04-12T13:41:37.139Z,51.291363
2023-04-12T13:42:37.154Z,51.291294
2023-04-12T13:43:37.094Z,51.291336
2023-04-12T13:44:37.089Z,51.291435
2023-04-12T13:45:37.097Z,51.291451
2023-04-12T13:46:37.053Z,51.291317
2023-04-12T13:47:37.129Z,51.291294
2023-04-12T13:48:37.780Z,51.291313
2023-04-12T13:49:37.013Z,51.291222
2023-04-12T13:50:36.996Z,51.291084
2023-04-12T13:51:36.993Z,51.291134
2023-04-12T13:52:36.980Z,51.291183
2023-04-12T13:53:37.021Z,51.291233
2023-04-12T13:54:36.959Z,51.291172
2023-04-12T13:55:36.949Z,51.291225
2023-04-12T13:56:36.940Z,51.291275
2023-04-12T13:57:37.616Z,51.291191
2023-04-12T13:58:36.945Z,51.291157
2023-04-12T13:59:36.919Z,51.291161
2023-04-12T14:00:36.892Z,51.291180
2023-04-12T14:01:36.904Z,51.291206
2023-04-12T14:02:36.945Z,51.291210
2023-04-12T14:03:36.935Z,51.291168
2023-04-12T14:04:36.898Z,51.291126
2023-04-12T14:05:36.827Z,51.291138
2023-04-12T14:06:36.829Z,51.291149
2023-04-12T14:07:36.830Z,51.291103
2023-04-12T14:08:36.789Z,51.291203
2023-04-12T14:09:36.828Z,51.291187
2023-04-12T14:10:36.755Z,51.291187
2023-04-12T14:11:36.762Z,51.291172
2023-04-12T14:12:36.747Z,51.291157
2023-04-12T14:13:36.729Z,51.291142
2023-04-12T14:14:36.755Z,51.291176
2023-04-12T14:15:36.735Z,51.291157
2023-04-12T14:16:36.795Z,51.291111
2023-04-12T14:17:36.787Z,51.291058
2023-04-12T14:18:36.698Z,51.291080
2023-04-12T14:19:36.662Z,51.291153
2023-04-12T14:20:36.699Z,51.291187
2023-04-12T14:21:36.648Z,51.291195
2023-04-12T14:22:36.627Z,51.291153
2023-04-12T14:23:36.612Z,51.291237
2023-04-12T14:24:36.610Z,51.291199
2023-04-12T14:25:36.650Z,51.291325
2023-04-12T14:26:36.574Z,51.291138
2023-04-12T14:27:36.585Z,51.291122
2023-04-12T14:28:36.572Z,51.291096
2023-04-12T14:29:36.546Z,51.291176
2023-04-12T14:30:36.580Z,51.291168
2023-04-12T14:31:36.613Z,51.291138
2023-04-12T14:32:36.619Z,51.291126
2023-04-12T14:33:36.522Z,51.291477
2023-04-12T14:34:36.504Z,51.291458
2023-04-12T14:35:36.474Z,51.291359
2023-04-12T14:36:36.483Z,51.291126
2023-04-12T14:37:36.465Z,51.291344
2023-04-12T14:38:36.432Z,51.291214
2023-04-12T14:39:36.802Z,51.291119
2023-04-12T14:40:36.605Z,51.291336
2023-04-12T14:41:36.424Z,51.291264
